sensor_id;sensor_type;location;lat;lon;timestamp;pressure;altitude;pressure_sealevel;temperature;humidity
54924;BME280;40825;52.270;20.984;2023-08-31T00:01:39;99589.65;;;16.18;100.00
54924;BME280;40825;52.270;20.984;2023-08-31T00:04:05;99593.61;;;16.17;100.00
54924;BME280;40825;52.270;20.984;2023-08-31T00:06:33;99598.21;;;16.14;100.00
54924;BME280;40825;52.270;20.984;2023-08-31T00:08:59;99596.56;;;16.12;100.00
54924;BME280;40825;52.270;20.984;2023-08-31T00:11:24;99601.23;;;16.09;100.00
54924;BME280;40825;52.270;20.984;2023-08-31T00:13:51;99593.64;;;16.06;100.00
54924;BME280;40825;52.270;20.984;2023-08-31T00:16:17;99591.98;;;16.04;100.00
54924;BME280;40825;52.270;20.984;2023-08-31T00:18:43;99595.58;;;16.03;100.00
54924;BME280;40825;52.270;20.984;2023-08-31T00:21:10;99597.87;;;16.01;100.00
54924;BME280;40825;52.270;20.984;2023-08-31T00:23:36;99599.54;;;16.01;100.00
54924;BME280;40825;52.270;20.984;2023-08-31T00:26:02;99600.61;;;16.00;100.00
54924;BME280;40825;52.270;20.984;2023-08-31T00:28:28;99600.11;;;16.00;100.00
54924;BME280;40825;52.270;20.984;2023-08-31T00:30:54;99600.66;;;16.00;100.00
54924;BME280;40825;52.270;20.984;2023-08-31T00:33:19;99599.36;;;15.99;100.00
54924;BME280;40825;52.270;20.984;2023-08-31T00:35:44;99597.76;;;15.98;100.00
54924;BME280;40825;52.270;20.984;2023-08-31T00:38:13;99596.40;;;15.96;100.00
54924;BME280;40825;52.270;20.984;2023-08-31T00:40:43;99595.80;;;15.92;100.00
54924;BME280;40825;52.270;20.984;2023-08-31T00:43:11;99594.26;;;15.88;100.00
54924;BME280;40825;52.270;20.984;2023-08-31T00:45:37;99598.82;;;15.87;100.00
54924;BME280;40825;52.270;20.984;2023-08-31T00:48:04;99599.69;;;15.84;100.00
54924;BME280;40825;52.270;20.984;2023-08-31T00:50:30;99598.90;;;15.82;100.00
54924;BME280;40825;52.270;20.984;2023-08-31T00:52:56;99599.88;;;15.81;100.00
54924;BME280;40825;52.270;20.984;2023-08-31T00:55:22;99596.08;;;15.80;100.00
54924;BME280;40825;52.270;20.984;2023-08-31T00:57:48;99591.16;;;15.79;100.00
54924;BME280;40825;52.270;20.984;2023-08-31T01:00:14;99592.20;;;15.77;100.00
54924;BME280;40825;52.270;20.984;2023-08-31T01:05:33;99594.69;;;15.73;100.00
54924;BME280;40825;52.270;20.984;2023-08-31T01:11:21;99596.27;;;15.72;100.00
54924;BME280;40825;52.270;20.984;2023-08-31T01:14:01;99593.63;;;15.70;100.00
54924;BME280;40825;52.270;20.984;2023-08-31T01:16:33;99598.23;;;15.69;100.00
54924;BME280;40825;52.270;20.984;2023-08-31T01:19:03;99600.20;;;15.67;100.00
54924;BME280;40825;52.270;20.984;2023-08-31T01:21:39;99601.58;;;15.66;100.00
54924;BME280;40825;52.270;20.984;2023-08-31T01:24:08;99604.50;;;15.67;100.00
54924;BME280;40825;52.270;20.984;2023-08-31T01:26:35;99603.86;;;15.67;100.00
54924;BME280;40825;52.270;20.984;2023-08-31T01:29:01;99602.52;;;15.68;100.00
54924;BME280;40825;52.270;20.984;2023-08-31T01:31:26;99599.23;;;15.67;100.00
54924;BME280;40825;52.270;20.984;2023-08-31T01:33:52;99603.09;;;15.66;100.00
54924;BME280;40825;52.270;20.984;2023-08-31T01:36:23;99601.36;;;15.66;100.00
54924;BME280;40825;52.270;20.984;2023-08-31T01:38:57;99603.34;;;15.65;100.00
54924;BME280;40825;52.270;20.984;2023-08-31T01:41:24;99599.70;;;15.63;100.00
54924;BME280;40825;52.270;20.984;2023-08-31T01:43:52;99598.44;;;15.62;100.00
54924;BME280;40825;52.270;20.984;2023-08-31T01:46:18;99604.89;;;15.61;100.00
54924;BME280;40825;52.270;20.984;2023-08-31T01:48:44;99606.25;;;15.59;100.00
54924;BME280;40825;52.270;20.984;2023-08-31T01:51:10;99608.69;;;15.57;100.00
54924;BME280;40825;52.270;20.984;2023-08-31T01:53:36;99608.90;;;15.57;100.00
54924;BME280;40825;52.270;20.984;2023-08-31T01:56:02;99603.69;;;15.57;100.00
54924;BME280;40825;52.270;20.984;2023-08-31T01:58:27;99605.16;;;15.58;100.00
54924;BME280;40825;52.270;20.984;2023-08-31T02:00:53;99604.71;;;15.58;100.00
54924;BME280;40825;52.270;20.984;2023-08-31T02:03:18;99605.17;;;15.56;100.00
54924;BME280;40825;52.270;20.984;2023-08-31T02:05:44;99608.27;;;15.54;100.00
54924;BME280;40825;52.270;20.984;2023-08-31T02:08:09;99613.60;;;15.51;100.00
54924;BME280;40825;52.270;20.984;2023-08-31T02:10:35;99615.58;;;15.50;100.00
54924;BME280;40825;52.270;20.984;2023-08-31T02:13:00;99613.61;;;15.49;100.00
54924;BME280;40825;52.270;20.984;2023-08-31T02:15:26;99613.16;;;15.48;100.00
54924;BME280;40825;52.270;20.984;2023-08-31T02:17:52;99611.55;;;15.48;100.00
54924;BME280;40825;52.270;20.984;2023-08-31T02:20:19;99610.77;;;15.47;100.00
54924;BME280;40825;52.270;20.984;2023-08-31T02:22:45;99614.27;;;15.47;100.00
54924;BME280;40825;52.270;20.984;2023-08-31T02:25:11;99613.34;;;15.45;100.00
54924;BME280;40825;52.270;20.984;2023-08-31T02:27:37;99614.10;;;15.46;100.00
54924;BME280;40825;52.270;20.984;2023-08-31T02:30:04;99615.77;;;15.46;100.00
54924;BME280;40825;52.270;20.984;2023-08-31T02:32:30;99621.35;;;15.45;100.00
54924;BME280;40825;52.270;20.984;2023-08-31T02:34:56;99621.66;;;15.45;100.00
54924;BME280;40825;52.270;20.984;2023-08-31T02:37:21;99621.66;;;15.45;100.00
54924;BME280;40825;52.270;20.984;2023-08-31T02:39:47;99621.77;;;15.45;100.00
54924;BME280;40825;52.270;20.984;2023-08-31T02:42:14;99621.17;;;15.44;100.00
54924;BME280;40825;52.270;20.984;2023-08-31T02:44:39;99618.97;;;15.45;100.00
54924;BME280;40825;52.270;20.984;2023-08-31T02:47:04;99618.63;;;15.43;100.00
54924;BME280;40825;52.270;20.984;2023-08-31T02:49:30;99615.66;;;15.44;100.00
54924;BME280;40825;52.270;20.984;2023-08-31T02:51:55;99617.98;;;15.44;100.00
54924;BME280;40825;52.270;20.984;2023-08-31T02:54:21;99619.29;;;15.44;100.00
54924;BME280;40825;52.270;20.984;2023-08-31T02:56:46;99620.63;;;15.44;100.00
54924;BME280;40825;52.270;20.984;2023-08-31T02:59:12;99618.90;;;15.44;100.00
54924;BME280;40825;52.270;20.984;2023-08-31T03:01:39;99617.64;;;15.45;100.00
54924;BME280;40825;52.270;20.984;2023-08-31T03:04:05;99618.61;;;15.46;100.00
54924;BME280;40825;52.270;20.984;2023-08-31T03:06:33;99621.05;;;15.44;100.00
54924;BME280;40825;52.270;20.984;2023-08-31T03:08:59;99624.65;;;15.43;100.00
54924;BME280;40825;52.270;20.984;2023-08-31T03:11:24;99623.58;;;15.44;100.00
54924;BME280;40825;52.270;20.984;2023-08-31T03:13:50;99632.38;;;15.45;100.00
54924;BME280;40825;52.270;20.984;2023-08-31T03:16:15;99633.36;;;15.43;100.00
54924;BME280;40825;52.270;20.984;2023-08-31T03:18:41;99635.75;;;15.41;100.00
54924;BME280;40825;52.270;20.984;2023-08-31T03:21:06;99639.62;;;15.38;100.00
54924;BME280;40825;52.270;20.984;2023-08-31T03:23:33;99640.88;;;15.36;100.00
54924;BME280;40825;52.270;20.984;2023-08-31T03:25:58;99644.65;;;15.36;100.00
54924;BME280;40825;52.270;20.984;2023-08-31T03:28:24;99642.94;;;15.37;100.00
54924;BME280;40825;52.270;20.984;2023-08-31T03:30:56;99643.52;;;15.35;100.00
54924;BME280;40825;52.270;20.984;2023-08-31T03:33:22;99643.03;;;15.33;100.00
54924;BME280;40825;52.270;20.984;2023-08-31T03:35:47;99646.02;;;15.32;100.00
54924;BME280;40825;52.270;20.984;2023-08-31T03:38:12;99645.39;;;15.32;100.00
54924;BME280;40825;52.270;20.984;2023-08-31T03:40:38;99646.88;;;15.32;100.00
54924;BME280;40825;52.270;20.984;2023-08-31T03:43:03;99645.61;;;15.33;100.00
54924;BME280;40825;52.270;20.984;2023-08-31T03:45:29;99643.66;;;15.35;100.00
54924;BME280;40825;52.270;20.984;2023-08-31T03:47:54;99649.00;;;15.36;100.00
54924;BME280;40825;52.270;20.984;2023-08-31T03:50:20;99650.03;;;15.34;100.00
54924;BME280;40825;52.270;20.984;2023-08-31T03:52:45;99649.89;;;15.35;100.00
54924;BME280;40825;52.270;20.984;2023-08-31T03:55:11;99654.91;;;15.36;100.00
54924;BME280;40825;52.270;20.984;2023-08-31T03:57:36;99656.23;;;15.37;100.00
54924;BME280;40825;52.270;20.984;2023-08-31T04:00:02;99655.14;;;15.37;100.00
54924;BME280;40825;52.270;20.984;2023-08-31T04:02:34;99659.17;;;15.36;100.00
54924;BME280;40825;52.270;20.984;2023-08-31T04:05:00;99663.38;;;15.37;100.00
54924;BME280;40825;52.270;20.984;2023-08-31T04:07:26;99661.72;;;15.37;100.00
54924;BME280;40825;52.270;20.984;2023-08-31T04:09:51;99664.26;;;15.38;100.00
54924;BME280;40825;52.270;20.984;2023-08-31T04:12:17;99665.88;;;15.38;100.00
54924;BME280;40825;52.270;20.984;2023-08-31T04:14:42;99665.89;;;15.39;100.00
54924;BME280;40825;52.270;20.984;2023-08-31T04:17:08;99664.34;;;15.39;100.00
54924;BME280;40825;52.270;20.984;2023-08-31T04:19:33;99659.15;;;15.41;100.00
54924;BME280;40825;52.270;20.984;2023-08-31T04:21:59;99655.81;;;15.41;100.00
54924;BME280;40825;52.270;20.984;2023-08-31T04:24:24;99652.48;;;15.39;100.00
54924;BME280;40825;52.270;20.984;2023-08-31T04:26:52;99656.02;;;15.38;100.00
54924;BME280;40825;52.270;20.984;2023-08-31T04:29:17;99655.42;;;15.35;100.00
54924;BME280;40825;52.270;20.984;2023-08-31T04:31:42;99656.29;;;15.35;100.00
54924;BME280;40825;52.270;20.984;2023-08-31T04:34:08;99656.13;;;15.35;100.00
54924;BME280;40825;52.270;20.984;2023-08-31T04:36:34;99660.29;;;15.36;100.00
54924;BME280;40825;52.270;20.984;2023-08-31T04:38:59;99660.43;;;15.37;100.00
54924;BME280;40825;52.270;20.984;2023-08-31T04:41:25;99664.70;;;15.38;100.00
54924;BME280;40825;52.270;20.984;2023-08-31T04:43:50;99668.22;;;15.40;100.00
54924;BME280;40825;52.270;20.984;2023-08-31T04:46:16;99665.51;;;15.42;100.00
54924;BME280;40825;52.270;20.984;2023-08-31T04:48:41;99666.89;;;15.44;100.00
54924;BME280;40825;52.270;20.984;2023-08-31T04:51:26;99673.94;;;15.47;100.00
54924;BME280;40825;52.270;20.984;2023-08-31T04:53:51;99678.84;;;15.48;100.00
54924;BME280;40825;52.270;20.984;2023-08-31T04:56:17;99682.39;;;15.50;100.00
54924;BME280;40825;52.270;20.984;2023-08-31T04:58:43;99681.17;;;15.51;100.00
54924;BME280;40825;52.270;20.984;2023-08-31T05:01:08;99684.22;;;15.56;100.00
54924;BME280;40825;52.270;20.984;2023-08-31T05:03:34;99686.90;;;15.62;100.00
54924;BME280;40825;52.270;20.984;2023-08-31T05:06:00;99689.92;;;15.68;100.00
54924;BME280;40825;52.270;20.984;2023-08-31T05:08:25;99696.27;;;15.73;100.00
54924;BME280;40825;52.270;20.984;2023-08-31T05:10:51;99702.02;;;15.81;100.00
54924;BME280;40825;52.270;20.984;2023-08-31T05:13:16;99706.59;;;15.87;100.00
54924;BME280;40825;52.270;20.984;2023-08-31T05:15:42;99711.12;;;15.92;100.00
54924;BME280;40825;52.270;20.984;2023-08-31T05:18:07;99710.45;;;15.97;100.00
54924;BME280;40825;52.270;20.984;2023-08-31T05:20:34;99707.89;;;16.01;100.00
54924;BME280;40825;52.270;20.984;2023-08-31T05:22:59;99714.24;;;16.12;100.00
54924;BME280;40825;52.270;20.984;2023-08-31T05:25:24;99711.23;;;16.20;100.00
54924;BME280;40825;52.270;20.984;2023-08-31T05:27:50;99714.27;;;16.31;100.00
54924;BME280;40825;52.270;20.984;2023-08-31T05:30:16;99711.48;;;16.40;100.00
54924;BME280;40825;52.270;20.984;2023-08-31T05:32:42;99717.23;;;16.49;100.00
54924;BME280;40825;52.270;20.984;2023-08-31T05:35:07;99720.48;;;16.59;100.00
54924;BME280;40825;52.270;20.984;2023-08-31T05:37:33;99727.05;;;16.63;100.00
54924;BME280;40825;52.270;20.984;2023-08-31T05:40:01;99729.57;;;16.57;100.00
54924;BME280;40825;52.270;20.984;2023-08-31T05:42:31;99732.00;;;16.55;100.00
54924;BME280;40825;52.270;20.984;2023-08-31T05:44:56;99732.60;;;16.59;100.00
54924;BME280;40825;52.270;20.984;2023-08-31T05:47:22;99735.75;;;16.60;100.00
54924;BME280;40825;52.270;20.984;2023-08-31T05:49:47;99738.67;;;16.61;100.00
54924;BME280;40825;52.270;20.984;2023-08-31T05:52:13;99744.16;;;16.60;100.00
54924;BME280;40825;52.270;20.984;2023-08-31T05:54:38;99743.89;;;16.60;100.00
54924;BME280;40825;52.270;20.984;2023-08-31T05:57:04;99747.08;;;16.61;100.00
54924;BME280;40825;52.270;20.984;2023-08-31T05:59:30;99755.83;;;16.69;100.00
54924;BME280;40825;52.270;20.984;2023-08-31T06:01:56;99756.66;;;16.80;100.00
54924;BME280;40825;52.270;20.984;2023-08-31T06:04:21;99761.69;;;16.85;100.00
54924;BME280;40825;52.270;20.984;2023-08-31T06:06:47;99763.55;;;16.82;100.00
54924;BME280;40825;52.270;20.984;2023-08-31T06:09:13;99766.36;;;16.82;100.00
54924;BME280;40825;52.270;20.984;2023-08-31T06:11:38;99770.32;;;16.80;100.00
54924;BME280;40825;52.270;20.984;2023-08-31T06:14:04;99771.62;;;16.73;100.00
54924;BME280;40825;52.270;20.984;2023-08-31T06:16:30;99769.48;;;16.67;100.00
54924;BME280;40825;52.270;20.984;2023-08-31T06:18:55;99766.48;;;16.60;100.00
54924;BME280;40825;52.270;20.984;2023-08-31T06:21:20;99764.42;;;16.61;100.00
54924;BME280;40825;52.270;20.984;2023-08-31T06:23:46;99766.47;;;16.60;100.00
54924;BME280;40825;52.270;20.984;2023-08-31T06:26:11;99766.10;;;16.60;100.00
54924;BME280;40825;52.270;20.984;2023-08-31T06:28:37;99766.98;;;16.65;100.00
54924;BME280;40825;52.270;20.984;2023-08-31T06:31:02;99768.74;;;16.76;100.00
54924;BME280;40825;52.270;20.984;2023-08-31T06:33:29;99768.13;;;16.86;100.00
54924;BME280;40825;52.270;20.984;2023-08-31T06:35:55;99770.59;;;17.00;100.00
54924;BME280;40825;52.270;20.984;2023-08-31T06:38:20;99773.92;;;17.18;100.00
54924;BME280;40825;52.270;20.984;2023-08-31T06:40:46;99776.04;;;17.28;100.00
54924;BME280;40825;52.270;20.984;2023-08-31T06:43:12;99774.24;;;17.36;100.00
54924;BME280;40825;52.270;20.984;2023-08-31T06:45:37;99774.58;;;17.47;100.00
54924;BME280;40825;52.270;20.984;2023-08-31T06:48:03;99781.96;;;17.54;100.00
54924;BME280;40825;52.270;20.984;2023-08-31T06:50:29;99783.75;;;17.51;100.00
54924;BME280;40825;52.270;20.984;2023-08-31T06:52:55;99780.90;;;17.44;100.00
54924;BME280;40825;52.270;20.984;2023-08-31T06:55:20;99778.27;;;17.48;100.00
54924;BME280;40825;52.270;20.984;2023-08-31T06:57:46;99781.39;;;17.48;99.83
54924;BME280;40825;52.270;20.984;2023-08-31T07:00:12;99784.55;;;17.56;100.00
54924;BME280;40825;52.270;20.984;2023-08-31T07:02:40;99785.60;;;17.57;100.00
54924;BME280;40825;52.270;20.984;2023-08-31T07:05:06;99786.31;;;17.64;100.00
54924;BME280;40825;52.270;20.984;2023-08-31T07:07:32;99788.89;;;17.73;100.00
54924;BME280;40825;52.270;20.984;2023-08-31T07:09:57;99790.23;;;17.78;100.00
54924;BME280;40825;52.270;20.984;2023-08-31T07:12:23;99795.88;;;17.86;100.00
54924;BME280;40825;52.270;20.984;2023-08-31T07:14:49;99788.41;;;17.95;100.00
54924;BME280;40825;52.270;20.984;2023-08-31T07:17:18;99790.65;;;18.03;100.00
54924;BME280;40825;52.270;20.984;2023-08-31T07:19:44;99791.80;;;18.08;100.00
54924;BME280;40825;52.270;20.984;2023-08-31T07:22:09;99793.27;;;18.18;100.00
54924;BME280;40825;52.270;20.984;2023-08-31T07:24:35;99794.92;;;18.25;100.00
54924;BME280;40825;52.270;20.984;2023-08-31T07:27:02;99798.83;;;18.26;97.66
54924;BME280;40825;52.270;20.984;2023-08-31T07:29:28;99799.21;;;18.36;99.40
54924;BME280;40825;52.270;20.984;2023-08-31T07:31:53;99799.48;;;18.48;100.00
54924;BME280;40825;52.270;20.984;2023-08-31T07:34:19;99798.98;;;18.55;100.00
54924;BME280;40825;52.270;20.984;2023-08-31T07:36:44;99803.77;;;18.58;98.18
54924;BME280;40825;52.270;20.984;2023-08-31T07:39:10;99803.27;;;18.64;100.00
54924;BME280;40825;52.270;20.984;2023-08-31T07:41:35;99804.02;;;18.71;100.00
54924;BME280;40825;52.270;20.984;2023-08-31T07:44:00;99811.91;;;18.70;100.00
54924;BME280;40825;52.270;20.984;2023-08-31T07:46:28;99809.83;;;18.75;99.67
54924;BME280;40825;52.270;20.984;2023-08-31T07:48:53;99810.08;;;18.80;100.00
54924;BME280;40825;52.270;20.984;2023-08-31T07:51:19;99815.66;;;18.89;100.00
54924;BME280;40825;52.270;20.984;2023-08-31T07:53:51;99810.54;;;18.92;100.00
54924;BME280;40825;52.270;20.984;2023-08-31T07:56:16;99816.04;;;18.97;99.28
54924;BME280;40825;52.270;20.984;2023-08-31T07:58:42;99817.63;;;19.01;100.00
54924;BME280;40825;52.270;20.984;2023-08-31T08:01:07;99820.17;;;19.07;99.74
54924;BME280;40825;52.270;20.984;2023-08-31T08:03:33;99823.01;;;19.03;98.89
54924;BME280;40825;52.270;20.984;2023-08-31T08:05:59;99823.11;;;19.09;100.00
54924;BME280;40825;52.270;20.984;2023-08-31T08:08:25;99824.02;;;19.16;100.00
54924;BME280;40825;52.270;20.984;2023-08-31T08:10:53;99823.65;;;19.33;100.00
54924;BME280;40825;52.270;20.984;2023-08-31T08:13:19;99823.06;;;19.49;99.53
54924;BME280;40825;52.270;20.984;2023-08-31T08:15:45;99826.80;;;19.68;99.82
54924;BME280;40825;52.270;20.984;2023-08-31T08:18:11;99830.25;;;19.90;100.00
54924;BME280;40825;52.270;20.984;2023-08-31T08:20:36;99835.22;;;20.01;95.08
54924;BME280;40825;52.270;20.984;2023-08-31T08:23:02;99835.17;;;20.11;98.79
54924;BME280;40825;52.270;20.984;2023-08-31T08:25:27;99830.45;;;20.10;95.06
54924;BME280;40825;52.270;20.984;2023-08-31T08:27:53;99833.16;;;20.15;90.26
54924;BME280;40825;52.270;20.984;2023-08-31T08:30:18;99829.11;;;20.23;96.93
54924;BME280;40825;52.270;20.984;2023-08-31T08:32:44;99836.05;;;20.36;96.82
54924;BME280;40825;52.270;20.984;2023-08-31T08:35:10;99829.88;;;20.42;93.67
54924;BME280;40825;52.270;20.984;2023-08-31T08:37:35;99831.29;;;20.56;98.03
54924;BME280;40825;52.270;20.984;2023-08-31T08:40:02;99829.44;;;20.64;95.04
54924;BME280;40825;52.270;20.984;2023-08-31T08:42:29;99832.41;;;20.71;96.47
54924;BME280;40825;52.270;20.984;2023-08-31T08:44:56;99840.48;;;20.81;94.44
54924;BME280;40825;52.270;20.984;2023-08-31T08:47:22;99841.90;;;20.79;84.84
54924;BME280;40825;52.270;20.984;2023-08-31T08:49:48;99847.66;;;20.83;90.31
54924;BME280;40825;52.270;20.984;2023-08-31T08:52:15;99850.25;;;20.96;94.82
54924;BME280;40825;52.270;20.984;2023-08-31T08:54:41;99853.39;;;21.05;91.66
54924;BME280;40825;52.270;20.984;2023-08-31T08:57:06;99851.73;;;21.15;83.21
54924;BME280;40825;52.270;20.984;2023-08-31T08:59:32;99850.99;;;21.29;93.43
54924;BME280;40825;52.270;20.984;2023-08-31T09:01:57;99858.25;;;21.47;96.10
54924;BME280;40825;52.270;20.984;2023-08-31T09:04:23;99858.09;;;21.47;87.38
54924;BME280;40825;52.270;20.984;2023-08-31T09:06:51;99853.81;;;21.45;90.71
54924;BME280;40825;52.270;20.984;2023-08-31T09:09:17;99855.04;;;21.37;86.77
54924;BME280;40825;52.270;20.984;2023-08-31T09:11:43;99855.63;;;21.39;95.04
54924;BME280;40825;52.270;20.984;2023-08-31T09:14:19;99856.01;;;21.36;91.97
54924;BME280;40825;52.270;20.984;2023-08-31T09:16:46;99856.05;;;21.40;88.93
54924;BME280;40825;52.270;20.984;2023-08-31T09:19:22;99860.47;;;21.49;89.89
54924;BME280;40825;52.270;20.984;2023-08-31T09:21:49;99863.55;;;21.54;85.11
54924;BME280;40825;52.270;20.984;2023-08-31T09:24:15;99863.48;;;21.58;86.24
54924;BME280;40825;52.270;20.984;2023-08-31T09:26:47;99864.27;;;21.62;88.80
54924;BME280;40825;52.270;20.984;2023-08-31T09:29:13;99867.35;;;21.73;85.58
54924;BME280;40825;52.270;20.984;2023-08-31T09:31:44;99869.15;;;21.84;86.03
54924;BME280;40825;52.270;20.984;2023-08-31T09:34:10;99872.39;;;22.06;83.65
54924;BME280;40825;52.270;20.984;2023-08-31T09:36:37;99878.48;;;22.32;85.20
54924;BME280;40825;52.270;20.984;2023-08-31T09:39:03;99878.84;;;22.18;83.59
54924;BME280;40825;52.270;20.984;2023-08-31T09:41:30;99880.91;;;22.07;80.55
54924;BME280;40825;52.270;20.984;2023-08-31T09:43:55;99881.02;;;22.09;81.22
54924;BME280;40825;52.270;20.984;2023-08-31T09:46:21;99887.20;;;22.29;85.99
54924;BME280;40825;52.270;20.984;2023-08-31T09:48:47;99885.45;;;22.22;77.74
54924;BME280;40825;52.270;20.984;2023-08-31T09:51:14;99889.42;;;22.22;76.95
54924;BME280;40825;52.270;20.984;2023-08-31T09:53:42;99892.77;;;22.33;73.44
54924;BME280;40825;52.270;20.984;2023-08-31T09:56:12;99889.08;;;22.59;75.11
54924;BME280;40825;52.270;20.984;2023-08-31T09:58:38;99889.79;;;22.66;76.31
54924;BME280;40825;52.270;20.984;2023-08-31T10:01:05;99890.79;;;22.76;79.85
54924;BME280;40825;52.270;20.984;2023-08-31T10:03:31;99895.52;;;22.84;77.97
54924;BME280;40825;52.270;20.984;2023-08-31T10:05:58;99898.61;;;22.84;78.55
54924;BME280;40825;52.270;20.984;2023-08-31T10:08:24;99899.05;;;22.77;74.45
54924;BME280;40825;52.270;20.984;2023-08-31T10:10:52;99898.73;;;22.83;74.10
54924;BME280;40825;52.270;20.984;2023-08-31T10:13:19;99901.85;;;22.87;72.51
54924;BME280;40825;52.270;20.984;2023-08-31T10:15:46;99905.02;;;22.97;71.90
54924;BME280;40825;52.270;20.984;2023-08-31T10:18:14;99906.45;;;23.02;67.11
54924;BME280;40825;52.270;20.984;2023-08-31T10:20:42;99904.70;;;23.02;67.28
54924;BME280;40825;52.270;20.984;2023-08-31T10:23:09;99904.07;;;23.06;76.87
54924;BME280;40825;52.270;20.984;2023-08-31T10:31:04;99903.55;;;22.98;68.30
54924;BME280;40825;52.270;20.984;2023-08-31T10:33:40;99903.98;;;23.03;73.19
54924;BME280;40825;52.270;20.984;2023-08-31T10:36:18;99902.14;;;23.04;75.98
54924;BME280;40825;52.270;20.984;2023-08-31T10:38:59;99902.84;;;22.91;74.54
54924;BME280;40825;52.270;20.984;2023-08-31T10:41:32;99902.91;;;22.78;73.65
54924;BME280;40825;52.270;20.984;2023-08-31T10:43:58;99899.16;;;22.64;73.13
54924;BME280;40825;52.270;20.984;2023-08-31T10:46:28;99903.82;;;22.50;72.65
54924;BME280;40825;52.270;20.984;2023-08-31T10:51:26;99911.08;;;22.29;73.53
54924;BME280;40825;52.270;20.984;2023-08-31T10:53:59;99917.56;;;22.26;71.47
54924;BME280;40825;52.270;20.984;2023-08-31T10:56:29;99911.88;;;22.23;72.96
54924;BME280;40825;52.270;20.984;2023-08-31T10:59:01;99911.12;;;22.22;70.08
54924;BME280;40825;52.270;20.984;2023-08-31T11:04:22;99910.52;;;22.39;72.94
54924;BME280;40825;52.270;20.984;2023-08-31T11:06:48;99907.69;;;22.31;70.36
54924;BME280;40825;52.270;20.984;2023-08-31T11:09:22;99907.81;;;22.26;69.02
54924;BME280;40825;52.270;20.984;2023-08-31T11:11:48;99905.77;;;22.14;65.48
54924;BME280;40825;52.270;20.984;2023-08-31T11:14:14;99899.39;;;22.19;68.69
54924;BME280;40825;52.270;20.984;2023-08-31T11:16:41;99903.05;;;22.25;67.52
54924;BME280;40825;52.270;20.984;2023-08-31T11:19:06;99902.67;;;22.16;64.74
54924;BME280;40825;52.270;20.984;2023-08-31T11:21:32;99900.05;;;22.09;67.15
54924;BME280;40825;52.270;20.984;2023-08-31T11:23:58;99902.93;;;22.18;69.40
54924;BME280;40825;52.270;20.984;2023-08-31T11:26:26;99904.99;;;22.27;70.46
54924;BME280;40825;52.270;20.984;2023-08-31T11:28:52;99908.13;;;22.32;69.81
54924;BME280;40825;52.270;20.984;2023-08-31T11:31:24;99911.27;;;22.33;69.14
54924;BME280;40825;52.270;20.984;2023-08-31T11:33:50;99913.15;;;22.36;68.33
54924;BME280;40825;52.270;20.984;2023-08-31T11:36:15;99915.56;;;22.40;68.97
54924;BME280;40825;52.270;20.984;2023-08-31T11:38:44;99912.80;;;22.32;65.43
54924;BME280;40825;52.270;20.984;2023-08-31T11:41:09;99910.10;;;22.29;66.27
54924;BME280;40825;52.270;20.984;2023-08-31T11:43:36;99910.38;;;22.35;66.05
54924;BME280;40825;52.270;20.984;2023-08-31T11:46:03;99909.55;;;22.44;64.44
54924;BME280;40825;52.270;20.984;2023-08-31T11:48:30;99914.66;;;22.46;61.18
54924;BME280;40825;52.270;20.984;2023-08-31T11:50:58;99910.49;;;22.43;62.75
54924;BME280;40825;52.270;20.984;2023-08-31T11:53:26;99910.30;;;22.39;66.42
54924;BME280;40825;52.270;20.984;2023-08-31T11:55:53;99911.07;;;22.30;64.46
54924;BME280;40825;52.270;20.984;2023-08-31T11:58:19;99912.77;;;22.28;64.49
54924;BME280;40825;52.270;20.984;2023-08-31T12:00:46;99911.12;;;22.23;65.94
54924;BME280;40825;52.270;20.984;2023-08-31T12:03:19;99905.95;;;22.22;67.89
54924;BME280;40825;52.270;20.984;2023-08-31T12:05:50;99901.75;;;22.24;69.33
54924;BME280;40825;52.270;20.984;2023-08-31T12:08:24;99899.08;;;22.27;67.91
54924;BME280;40825;52.270;20.984;2023-08-31T12:10:51;99898.05;;;22.35;69.20
54924;BME280;40825;52.270;20.984;2023-08-31T12:13:17;99902.05;;;22.40;68.05
54924;BME280;40825;52.270;20.984;2023-08-31T12:15:43;99900.77;;;22.26;63.22
54924;BME280;40825;52.270;20.984;2023-08-31T12:18:10;99900.38;;;22.07;60.95
54924;BME280;40825;52.270;20.984;2023-08-31T12:20:43;99898.30;;;22.08;63.17
54924;BME280;40825;52.270;20.984;2023-08-31T12:23:08;99895.95;;;22.13;65.53
54924;BME280;40825;52.270;20.984;2023-08-31T12:25:35;99897.11;;;22.11;64.01
54924;BME280;40825;52.270;20.984;2023-08-31T12:28:00;99899.30;;;22.07;64.30
54924;BME280;40825;52.270;20.984;2023-08-31T12:30:26;99897.21;;;22.01;63.97
54924;BME280;40825;52.270;20.984;2023-08-31T12:32:51;99888.94;;;22.04;67.25
54924;BME280;40825;52.270;20.984;2023-08-31T12:35:17;99887.05;;;22.10;67.83
54924;BME280;40825;52.270;20.984;2023-08-31T12:37:43;99885.53;;;22.10;66.89
54924;BME280;40825;52.270;20.984;2023-08-31T12:40:09;99881.89;;;22.01;66.29
54924;BME280;40825;52.270;20.984;2023-08-31T12:42:35;99883.04;;;21.88;66.26
54924;BME280;40825;52.270;20.984;2023-08-31T12:45:01;99879.65;;;21.82;64.79
54924;BME280;40825;52.270;20.984;2023-08-31T12:47:31;99877.77;;;21.86;62.56
54924;BME280;40825;52.270;20.984;2023-08-31T12:49:56;99877.69;;;22.03;63.30
54924;BME280;40825;52.270;20.984;2023-08-31T12:52:21;99872.32;;;22.17;63.36
54924;BME280;40825;52.270;20.984;2023-08-31T12:54:47;99876.73;;;22.25;64.40
54924;BME280;40825;52.270;20.984;2023-08-31T12:57:12;99875.55;;;22.38;67.42